createdAt,value
2019-03-01T00:02:30.256Z,70.70
2019-03-01T00:05:44.648Z,74.00
2019-03-01T00:08:55.175Z,77.47
2019-03-01T00:11:52.120Z,76.10
2019-03-01T00:14:56.714Z,68.97
2019-03-01T00:18:20.110Z,73.70
2019-03-01T00:21:38.665Z,67.90
2019-03-01T00:24:50.975Z,70.93
2019-03-01T00:28:14.182Z,66.73
2019-03-01T00:31:43.984Z,59.87
2019-03-01T00:35:20.349Z,61.53
2019-03-01T00:38:25.740Z,63.43
2019-03-01T00:41:50.024Z,61.00
2019-03-01T00:44:41.263Z,66.20
2019-03-01T00:47:27.162Z,60.20
2019-03-01T00:50:13.115Z,63.80
2019-03-01T00:52:59.036Z,64.13
2019-03-01T00:55:45.248Z,60.27
2019-03-01T00:58:31.395Z,61.43
2019-03-01T01:01:17.056Z,56.83
2019-03-01T01:04:03.412Z,61.60
2019-03-01T01:06:49.282Z,56.83
2019-03-01T01:09:35.076Z,61.03
2019-03-01T01:12:21.415Z,54.53
2019-03-01T01:15:07.557Z,57.23
2019-03-01T01:17:53.324Z,53.53
2019-03-01T01:20:39.471Z,57.70
2019-03-01T01:23:25.260Z,57.23
2019-03-01T01:26:11.756Z,52.97
2019-03-01T01:28:57.995Z,53.87
2019-03-01T01:31:43.498Z,51.43
2019-03-01T01:34:29.431Z,58.00
2019-03-01T01:37:15.498Z,48.27
2019-03-01T01:40:01.253Z,52.47
2019-03-01T01:42:47.242Z,55.53
2019-03-01T01:45:33.276Z,57.23
2019-03-01T01:48:19.055Z,54.47
2019-03-01T01:51:05.068Z,62.27
2019-03-01T01:53:51.236Z,60.93
2019-03-01T01:56:37.086Z,59.60
2019-03-01T01:59:23.344Z,59.83
2019-03-01T02:02:09.316Z,61.07
2019-03-01T02:04:54.978Z,68.47
2019-03-01T02:07:40.768Z,63.20
2019-03-01T02:10:27.099Z,66.63
2019-03-01T02:13:13.172Z,64.50
2019-03-01T02:15:59.263Z,67.63
2019-03-01T02:18:45.499Z,67.67
2019-03-01T02:21:31.161Z,65.77
2019-03-01T02:24:16.870Z,64.20
2019-03-01T02:27:30.572Z,64.87
2019-03-01T02:30:18.663Z,69.10
2019-03-01T02:33:04.800Z,65.17
2019-03-01T02:35:50.483Z,67.20
2019-03-01T02:38:36.311Z,69.30
2019-03-01T02:41:22.170Z,69.17
2019-03-01T02:44:07.719Z,71.73
2019-03-01T02:46:53.496Z,68.50
2019-03-01T02:49:40.033Z,67.20
2019-03-01T02:52:25.731Z,66.43
2019-03-01T02:55:12.845Z,71.20
2019-03-01T02:57:59.131Z,74.43
2019-03-01T03:00:44.661Z,79.10
2019-03-01T03:03:30.781Z,83.30
2019-03-01T03:06:35.058Z,85.93
2019-03-01T03:09:21.142Z,101.33
2019-03-01T03:12:07.055Z,96.10
2019-03-01T03:14:53.178Z,93.57
2019-03-01T03:17:38.702Z,98.00
2019-03-01T03:20:24.609Z,92.33
2019-03-01T03:23:10.699Z,98.17
2019-03-01T03:25:56.654Z,101.07
2019-03-01T03:28:42.539Z,96.57
2019-03-01T03:31:28.775Z,99.63
2019-03-01T03:34:14.544Z,100.77
2019-03-01T03:37:00.299Z,94.50
2019-03-01T03:39:46.665Z,101.03
2019-03-01T03:42:32.818Z,95.40
2019-03-01T03:45:18.821Z,105.20
2019-03-01T03:48:04.927Z,92.40
2019-03-01T03:50:50.553Z,100.57
2019-03-01T03:53:36.543Z,107.90
2019-03-01T03:56:23.315Z,105.57
2019-03-01T03:59:09.322Z,106.80
2019-03-01T04:01:55.131Z,105.93
2019-03-01T04:04:41.413Z,115.83
2019-03-01T04:07:27.298Z,105.67
2019-03-01T04:10:13.067Z,105.30
2019-03-01T04:12:59.282Z,111.70
2019-03-01T04:15:45.091Z,104.50
2019-03-01T04:18:31.098Z,115.70
2019-03-01T04:21:17.149Z,112.93
2019-03-01T04:24:02.783Z,100.37
2019-03-01T04:26:48.818Z,109.50
2019-03-01T04:29:35.250Z,113.90
2019-03-01T04:32:20.940Z,116.37
2019-03-01T04:35:06.820Z,114.73
2019-03-01T04:37:52.931Z,120.37
2019-03-01T04:40:39.196Z,112.90
2019-03-01T04:43:24.900Z,120.30
2019-03-01T04:46:11.346Z,113.83
2019-03-01T04:48:57.360Z,121.67
2019-03-01T04:51:43.190Z,128.27
2019-03-01T04:54:29.322Z,126.73
2019-03-01T04:57:14.777Z,126.77
2019-03-01T05:00:00.745Z,133.47
2019-03-01T05:02:47.478Z,119.50
2019-03-01T05:05:33.302Z,133.10
2019-03-01T05:08:19.189Z,130.63
2019-03-01T05:11:05.441Z,129.23
2019-03-01T05:13:51.003Z,137.30
2019-03-01T05:16:36.970Z,127.43
2019-03-01T05:19:23.280Z,129.93
2019-03-01T05:22:09.411Z,139.80
2019-03-01T05:24:55.298Z,129.00
2019-03-01T05:27:41.065Z,147.60
2019-03-01T05:30:27.169Z,131.67
2019-03-01T05:33:13.105Z,132.90
2019-03-01T05:35:59.497Z,124.97
2019-03-01T05:38:45.594Z,134.93
2019-03-01T05:41:31.774Z,135.50
2019-03-01T05:44:17.842Z,121.27
2019-03-01T05:47:03.730Z,127.77
2019-03-01T05:49:49.528Z,124.60
2019-03-01T05:52:35.807Z,131.93
2019-03-01T05:55:21.598Z,132.03
2019-03-01T05:59:01.681Z,119.43
2019-03-01T06:02:16.409Z,123.83
2019-03-01T06:05:12.068Z,114.27
2019-03-01T06:08:10.710Z,126.10
2019-03-01T06:11:18.238Z,114.20
2019-03-01T06:14:44.118Z,123.60
2019-03-01T06:18:02.706Z,109.53
2019-03-01T06:21:24.842Z,103.37
2019-03-01T06:24:45.616Z,115.17
2019-03-01T06:28:05.887Z,113.70
2019-03-01T06:31:18.677Z,114.47
2019-03-01T06:34:29.926Z,121.00
2019-03-01T06:37:27.384Z,123.83
2019-03-01T06:40:39.411Z,106.17
2019-03-01T06:44:06.852Z,102.80
2019-03-01T06:47:13.658Z,121.30
2019-03-01T06:50:22.178Z,104.73
2019-03-01T06:53:07.951Z,110.90
2019-03-01T06:56:01.522Z,102.97
2019-03-01T06:58:49.555Z,107.90
2019-03-01T07:01:41.508Z,99.43
2019-03-01T07:04:27.402Z,107.93
2019-03-01T07:07:13.073Z,102.40
2019-03-01T07:09:59.059Z,97.77
2019-03-01T07:12:44.894Z,101.23
2019-03-01T07:15:30.729Z,101.37
2019-03-01T07:18:16.661Z,98.00
2019-03-01T07:21:02.842Z,90.33
2019-03-01T07:23:48.487Z,88.43
2019-03-01T07:26:34.814Z,94.83
2019-03-01T07:29:20.930Z,96.57
2019-03-01T07:32:07.352Z,89.57
2019-03-01T07:34:53.423Z,85.33
2019-03-01T07:37:39.047Z,83.57
2019-03-01T07:40:24.965Z,95.60
2019-03-01T07:43:11.083Z,85.50
2019-03-01T07:45:57.119Z,88.13
2019-03-01T07:48:43.011Z,87.67
2019-03-01T07:51:30.743Z,79.57
2019-03-01T07:54:18.093Z,83.33
2019-03-01T07:57:03.829Z,82.87
2019-03-01T07:59:50.018Z,71.53
2019-03-01T08:02:39.489Z,71.87
2019-03-01T08:05:23.196Z,76.67
2019-03-01T08:08:09.671Z,74.43
2019-03-01T08:10:56.411Z,70.40
2019-03-01T08:13:43.257Z,65.13
2019-03-01T08:16:29.551Z,70.13
2019-03-01T08:19:17.092Z,72.07
2019-03-01T08:22:03.223Z,79.47
2019-03-01T08:24:49.596Z,80.97
2019-03-01T08:27:35.644Z,80.70
2019-03-01T08:30:21.531Z,75.80
2019-03-01T08:33:08.250Z,82.83
2019-03-01T08:35:54.096Z,74.47
2019-03-01T08:38:40.240Z,77.43
2019-03-01T08:41:26.362Z,73.13
2019-03-01T08:44:11.823Z,78.03
2019-03-01T08:46:58.193Z,80.23
2019-03-01T08:49:44.233Z,83.53
2019-03-01T08:52:30.369Z,85.70
2019-03-01T08:55:17.165Z,85.70
2019-03-01T08:58:06.872Z,91.30
2019-03-01T09:00:59.333Z,111.10
2019-03-01T09:03:42.766Z,90.80
2019-03-01T09:06:29.150Z,88.27
2019-03-01T09:09:17.616Z,92.83
2019-03-01T09:12:02.410Z,93.43
2019-03-01T09:14:49.230Z,90.07
2019-03-01T09:17:35.177Z,96.27
2019-03-01T09:20:21.366Z,104.63
2019-03-01T09:23:19.608Z,102.60
2019-03-01T09:25:55.410Z,90.97
2019-03-01T09:28:43.432Z,75.47
2019-03-01T09:31:29.935Z,81.27
2019-03-01T09:34:16.781Z,91.00
2019-03-01T09:37:02.641Z,82.80
2019-03-01T09:39:50.463Z,87.80
2019-03-01T09:42:35.926Z,80.03
2019-03-01T09:45:22.011Z,84.93
2019-03-01T09:48:08.807Z,86.07
2019-03-01T09:50:55.738Z,78.30
2019-03-01T09:53:42.069Z,80.10
2019-03-01T09:56:28.326Z,82.23
2019-03-01T09:59:14.245Z,92.30
2019-03-01T10:02:02.322Z,91.90
2019-03-01T10:04:48.275Z,90.57
2019-03-01T10:07:34.594Z,88.53
2019-03-01T10:10:22.591Z,93.10
2019-03-01T10:13:08.523Z,85.80
2019-03-01T10:15:54.755Z,96.33
2019-03-01T10:18:40.797Z,87.83
2019-03-01T10:21:27.111Z,83.97
2019-03-01T10:24:13.463Z,82.90
2019-03-01T10:26:59.786Z,80.87
2019-03-01T10:29:45.582Z,71.23
2019-03-01T10:32:31.958Z,72.23
2019-03-01T10:35:18.357Z,66.10
2019-03-01T10:38:03.990Z,68.70
2019-03-01T10:40:50.001Z,59.27
2019-03-01T10:43:36.418Z,46.47
2019-03-01T10:46:22.208Z,46.97
2019-03-01T10:49:08.440Z,51.07
2019-03-01T10:51:54.498Z,53.30
2019-03-01T10:54:40.386Z,55.33
2019-03-01T10:57:26.708Z,59.37
2019-03-01T11:00:20.368Z,55.20
2019-03-01T11:03:05.870Z,64.20
2019-03-01T11:05:53.044Z,62.07
2019-03-01T11:08:39.288Z,61.57
2019-03-01T11:11:25.411Z,61.90
2019-03-01T11:14:10.904Z,64.47
2019-03-01T11:16:57.231Z,63.53
2019-03-01T11:19:43.306Z,69.17
2019-03-01T11:22:29.354Z,89.20
2019-03-01T11:25:15.354Z,103.07
2019-03-01T11:28:01.030Z,114.30
2019-03-01T11:30:46.946Z,130.37
2019-03-01T11:33:32.986Z,155.53
2019-03-01T11:36:20.090Z,135.63
2019-03-01T11:39:06.110Z,139.37
2019-03-01T11:41:51.903Z,160.23
2019-03-01T11:44:38.170Z,173.17
2019-03-01T11:47:23.859Z,153.57
2019-03-01T11:50:12.230Z,153.27
2019-03-01T11:52:57.964Z,173.80
2019-03-01T11:55:43.942Z,185.43
2019-03-01T11:58:29.784Z,160.90
2019-03-01T12:01:17.478Z,159.43
2019-03-01T12:04:03.843Z,187.33
2019-03-01T12:06:49.966Z,156.03
2019-03-01T12:09:36.022Z,157.30
2019-03-01T12:12:21.663Z,126.37
2019-03-01T12:15:07.714Z,107.87
2019-03-01T12:17:53.952Z,94.73
2019-03-01T12:20:40.000Z,93.07
2019-03-01T12:23:25.994Z,95.93
2019-03-01T12:26:12.602Z,93.87
2019-03-01T12:28:58.503Z,94.77
2019-03-01T12:31:44.465Z,105.60
2019-03-01T12:34:30.563Z,101.23
2019-03-01T12:37:16.723Z,73.03
2019-03-01T12:40:03.156Z,70.90
2019-03-01T12:42:49.197Z,80.73
2019-03-01T12:45:35.357Z,70.93
2019-03-01T12:48:21.180Z,61.53
2019-03-01T12:51:06.871Z,62.97
2019-03-01T12:53:52.436Z,57.83
2019-03-01T12:56:37.772Z,55.87
2019-03-01T12:59:23.368Z,50.17
2019-03-01T13:02:08.839Z,48.10
2019-03-01T13:04:54.530Z,47.20
2019-03-01T13:07:40.763Z,48.40
2019-03-01T13:10:26.893Z,58.73
2019-03-01T13:13:12.779Z,54.03
2019-03-01T13:15:58.506Z,53.10
2019-03-01T13:18:47.556Z,60.00
2019-03-01T13:21:32.063Z,56.47
2019-03-01T13:24:17.830Z,50.03
2019-03-01T13:27:05.946Z,56.73
2019-03-01T13:29:55.244Z,52.17
2019-03-01T13:32:39.871Z,54.87
2019-03-01T13:35:25.946Z,53.43
2019-03-01T13:38:13.111Z,59.03
2019-03-01T13:41:01.737Z,56.10
2019-03-01T13:43:46.061Z,49.53
2019-03-01T13:46:33.429Z,48.07
2019-03-01T13:49:19.378Z,48.93
2019-03-01T13:52:04.814Z,48.70
2019-03-01T13:54:53.129Z,48.30
2019-03-01T13:57:39.048Z,55.67
2019-03-01T14:00:24.491Z,44.83
2019-03-01T14:03:10.601Z,50.77
2019-03-01T14:05:56.332Z,51.03
2019-03-01T14:08:42.578Z,44.57
2019-03-01T14:11:28.445Z,44.67
2019-03-01T14:14:13.731Z,43.77
2019-03-01T14:16:59.027Z,54.13
2019-03-01T14:19:44.847Z,52.13
2019-03-01T14:22:30.590Z,44.30
2019-03-01T14:25:16.006Z,46.27
2019-03-01T14:28:02.170Z,45.23
2019-03-01T14:30:49.009Z,46.80
2019-03-01T14:33:34.376Z,45.30
2019-03-01T14:36:20.043Z,44.83
2019-03-01T14:39:14.937Z,50.47
2019-03-01T14:42:00.535Z,43.87
2019-03-01T14:44:48.021Z,37.70
2019-03-01T14:47:35.358Z,41.23
2019-03-01T14:50:22.148Z,39.73
2019-03-01T14:53:07.759Z,36.77
2019-03-01T14:55:58.893Z,34.43
2019-03-01T14:58:58.906Z,37.20
2019-03-01T15:02:22.102Z,31.47
2019-03-01T15:05:16.731Z,35.20
2019-03-01T15:07:54.765Z,37.03
2019-03-01T15:10:40.811Z,40.13
2019-03-01T15:13:27.852Z,36.27
2019-03-01T15:16:13.434Z,36.53
2019-03-01T15:18:59.064Z,39.03
2019-03-01T15:21:44.844Z,36.27
2019-03-01T15:24:33.275Z,35.97
2019-03-01T15:27:18.312Z,40.23
2019-03-01T15:30:09.287Z,36.97
2019-03-01T15:32:54.648Z,37.83
2019-03-01T15:35:40.709Z,40.17
2019-03-01T15:38:27.609Z,33.73
2019-03-01T15:41:14.512Z,32.80
2019-03-01T15:44:00.081Z,33.70
2019-03-01T15:46:46.353Z,29.50
2019-03-01T15:49:33.174Z,27.20
2019-03-01T15:52:19.313Z,27.93
2019-03-01T15:55:07.704Z,31.40
2019-03-01T15:57:56.392Z,26.90
2019-03-01T16:00:40.919Z,28.33
2019-03-01T16:03:26.777Z,33.83
2019-03-01T16:06:17.200Z,27.03
2019-03-01T16:09:00.018Z,27.70
2019-03-01T16:11:46.123Z,26.03
2019-03-01T16:14:31.412Z,21.30
2019-03-01T16:17:17.577Z,19.97
2019-03-01T16:20:05.861Z,18.93
2019-03-01T16:22:54.037Z,22.40
2019-03-01T16:25:43.876Z,19.70
2019-03-01T16:28:31.122Z,20.10
2019-03-01T16:31:16.976Z,22.37
2019-03-01T16:34:04.399Z,20.53
2019-03-01T16:36:53.200Z,17.43
2019-03-01T16:39:39.068Z,17.67
2019-03-01T16:42:24.756Z,25.03
2019-03-01T16:45:11.069Z,19.90
2019-03-01T16:47:57.062Z,20.90
2019-03-01T16:50:44.027Z,19.83
2019-03-01T16:53:30.145Z,14.03
2019-03-01T16:56:15.829Z,27.30
2019-03-01T16:59:03.727Z,17.97
2019-03-01T17:01:48.915Z,15.63
2019-03-01T17:04:35.005Z,16.17
2019-03-01T17:07:25.130Z,16.03
2019-03-01T17:10:10.482Z,19.47
2019-03-01T17:12:56.667Z,15.93
2019-03-01T17:15:42.326Z,20.93
2019-03-01T17:18:28.001Z,15.23
2019-03-01T17:21:15.866Z,17.50
2019-03-01T17:24:01.268Z,17.33
2019-03-01T17:26:47.158Z,17.93
2019-03-01T17:29:35.766Z,17.33
2019-03-01T17:32:19.767Z,13.67
2019-03-01T17:35:06.518Z,17.53
2019-03-01T17:40:55.674Z,16.80
2019-03-01T17:43:42.537Z,15.73
2019-03-01T17:46:29.811Z,20.20
2019-03-01T17:49:18.508Z,16.17
2019-03-01T17:52:05.552Z,17.03
2019-03-01T17:55:04.633Z,24.43
2019-03-01T17:57:51.785Z,15.77
2019-03-01T18:00:44.090Z,14.70
2019-03-01T18:03:31.173Z,18.27
2019-03-01T18:06:18.123Z,14.83
2019-03-01T18:09:05.854Z,13.47
2019-03-01T18:11:51.994Z,14.40
2019-03-01T18:14:39.105Z,16.57
2019-03-01T18:17:25.625Z,20.47
2019-03-01T18:20:25.467Z,19.70
2019-03-01T18:23:12.438Z,10.57
2019-03-01T18:25:59.584Z,13.97
2019-03-01T18:28:48.323Z,18.40
2019-03-01T18:31:35.619Z,14.60
2019-03-01T18:34:21.958Z,13.83
2019-03-01T18:37:19.110Z,19.63
2019-03-01T18:40:02.759Z,16.93
2019-03-01T18:42:50.506Z,17.73
2019-03-01T18:45:41.806Z,15.53
2019-03-01T18:48:26.419Z,20.00
2019-03-01T18:51:12.635Z,16.27
2019-03-01T18:54:00.629Z,15.67
2019-03-01T18:56:46.942Z,18.27
2019-03-01T18:59:33.003Z,15.23
2019-03-01T19:02:19.755Z,14.53
2019-03-01T19:05:06.864Z,14.67
2019-03-01T19:07:53.011Z,18.53
2019-03-01T19:10:40.623Z,9.87
2019-03-01T19:13:37.492Z,9.60
2019-03-01T19:16:25.415Z,10.57
2019-03-01T19:19:13.945Z,11.23
2019-03-01T19:22:00.378Z,10.63
2019-03-01T19:24:46.856Z,10.90
2019-03-01T19:27:34.938Z,11.27
2019-03-01T19:30:25.271Z,10.73
2019-03-01T19:33:11.478Z,12.57
2019-03-01T19:36:00.687Z,11.07
2019-03-01T19:38:46.521Z,15.60
2019-03-01T19:41:33.075Z,16.30
2019-03-01T19:44:19.396Z,15.57
2019-03-01T19:47:06.022Z,11.63
2019-03-01T19:49:52.115Z,11.50
2019-03-01T19:52:38.788Z,10.63
2019-03-01T19:55:24.903Z,11.87
2019-03-01T19:58:11.916Z,8.30
2019-03-01T20:00:59.501Z,14.67
2019-03-01T20:03:46.297Z,8.97
2019-03-01T20:06:32.921Z,13.00
2019-03-01T20:09:19.795Z,9.43
2019-03-01T20:12:06.284Z,10.20
2019-03-01T20:14:52.467Z,8.13
2019-03-01T20:17:44.368Z,13.20
2019-03-01T20:20:29.995Z,12.20
2019-03-01T20:23:17.651Z,11.47
2019-03-01T20:26:03.963Z,9.37
2019-03-01T20:28:55.339Z,14.73
2019-03-01T20:31:41.759Z,9.17
2019-03-01T20:34:28.798Z,15.40
2019-03-01T20:37:16.876Z,14.13
2019-03-01T20:40:06.053Z,14.10
2019-03-01T20:42:55.914Z,13.33
2019-03-01T20:45:40.957Z,16.70
2019-03-01T20:48:28.981Z,12.33
2019-03-01T20:51:17.614Z,14.90
2019-03-01T20:54:04.477Z,10.73
2019-03-01T20:56:52.736Z,12.73
2019-03-01T20:59:39.970Z,10.83
2019-03-01T21:02:26.192Z,13.60
2019-03-01T21:05:12.953Z,13.47
2019-03-01T21:07:59.746Z,14.57
2019-03-01T21:10:46.809Z,15.10
2019-03-01T21:13:34.046Z,12.07
2019-03-01T21:16:22.021Z,12.53
2019-03-01T21:19:09.648Z,13.67
2019-03-01T21:21:56.014Z,13.10
2019-03-01T21:24:43.031Z,14.37
2019-03-01T21:27:29.214Z,13.43
2019-03-01T21:30:20.659Z,10.33
2019-03-01T21:33:05.897Z,10.73
2019-03-01T21:35:52.269Z,11.17
2019-03-01T21:38:38.213Z,7.97
2019-03-01T21:41:26.953Z,10.97
2019-03-01T21:44:13.630Z,11.83
2019-03-01T21:46:59.809Z,11.83
2019-03-01T21:49:48.963Z,14.23
2019-03-01T21:52:35.296Z,6.30
2019-03-01T21:55:24.959Z,7.10
2019-03-01T21:58:11.018Z,10.70
2019-03-01T22:00:57.485Z,12.83
2019-03-01T22:03:44.467Z,7.77
2019-03-01T22:06:31.084Z,6.13
2019-03-01T22:09:20.688Z,6.37
2019-03-01T22:12:07.388Z,8.67
2019-03-01T22:14:53.693Z,7.97
2019-03-01T22:24:08.244Z,5.70
2019-03-01T22:26:55.368Z,6.70
2019-03-01T22:29:43.547Z,5.60
2019-03-01T22:32:30.103Z,6.50
2019-03-01T22:35:16.368Z,10.27
2019-03-01T22:38:04.559Z,6.33
2019-03-01T22:40:51.052Z,9.13
2019-03-01T22:43:37.469Z,5.83
2019-03-01T22:46:25.758Z,7.90
2019-03-01T22:49:20.645Z,7.37
2019-03-01T22:52:06.961Z,11.20
2019-03-01T22:54:53.417Z,7.30
2019-03-01T22:57:44.725Z,6.57
2019-03-01T23:01:20.580Z,7.73
2019-03-01T23:04:06.956Z,8.20
2019-03-01T23:06:52.901Z,9.43
2019-03-01T23:09:42.626Z,10.40
2019-03-01T23:12:30.117Z,9.67
2019-03-01T23:15:16.228Z,13.57
2019-03-01T23:18:05.654Z,14.73
2019-03-01T23:20:51.042Z,9.27
2019-03-01T23:23:39.049Z,13.33
2019-03-01T23:26:26.627Z,12.33
2019-03-01T23:29:15.614Z,11.47
2019-03-01T23:32:01.069Z,17.87
2019-03-01T23:34:47.805Z,7.57
2019-03-01T23:37:35.624Z,10.60
2019-03-01T23:40:21.873Z,10.20
2019-03-01T23:43:10.823Z,9.27
2019-03-01T23:45:56.727Z,10.37
2019-03-01T23:48:45.587Z,11.07
2019-03-01T23:51:30.668Z,8.63
2019-03-01T23:54:16.583Z,12.27
2019-03-01T23:57:05.703Z,14.27
2019-03-01T23:59:50.773Z,9.03
